createdAt,value
2023-02-17T00:00:41.512Z,14.68
2023-02-17T00:04:17.636Z,15.27
2023-02-17T00:06:09.912Z,16.15
2023-02-17T00:08:40.348Z,15.60
2023-02-17T00:11:10.477Z,14.95
2023-02-17T00:13:40.511Z,15.40
2023-02-17T00:16:12.791Z,15.07
2023-02-17T00:18:43.309Z,15.77
2023-02-17T00:21:27.237Z,15.38
2023-02-17T00:23:58.959Z,15.38
2023-02-17T00:26:28.971Z,16.52
2023-02-17T00:29:01.525Z,15.63
2023-02-17T00:34:19.210Z,16.00
2023-02-17T00:36:49.320Z,15.85
2023-02-17T00:39:20.312Z,15.50
2023-02-17T00:41:53.405Z,14.82
2023-02-17T00:44:27.264Z,15.52
2023-02-17T00:46:57.342Z,16.08
2023-02-17T00:49:30.671Z,16.13
2023-02-17T00:52:04.467Z,16.35
2023-02-17T00:54:36.460Z,15.80
2023-02-17T00:57:07.006Z,16.23
2023-02-17T00:59:37.009Z,16.63
2023-02-17T01:02:06.945Z,17.23
2023-02-17T01:04:38.953Z,16.58
2023-02-17T01:07:09.410Z,17.23
2023-02-17T01:09:39.741Z,16.17
2023-02-17T01:12:09.588Z,16.73
2023-02-17T01:14:40.012Z,17.00
2023-02-17T01:17:10.312Z,17.13
2023-02-17T01:19:40.327Z,16.97
2023-02-17T01:22:10.216Z,17.88
2023-02-17T01:24:41.581Z,16.90
2023-02-17T01:29:42.290Z,18.48
2023-02-17T01:32:12.458Z,18.20
2023-02-17T01:34:44.090Z,18.33
2023-02-17T01:37:14.538Z,17.38
2023-02-17T01:39:44.805Z,16.58
2023-02-17T01:42:23.577Z,17.05
2023-02-17T01:48:35.063Z,17.63
2023-02-17T01:51:12.663Z,16.55
2023-02-17T01:53:45.090Z,16.65
2023-02-17T01:56:17.819Z,16.00
2023-02-17T01:58:56.394Z,17.25
2023-02-17T02:01:26.685Z,16.35
2023-02-17T02:03:56.987Z,16.58
2023-02-17T02:06:30.872Z,16.88
2023-02-17T02:09:25.100Z,17.08
2023-02-17T02:11:55.735Z,15.48
2023-02-17T02:14:26.171Z,15.60
2023-02-17T02:17:05.007Z,15.73
2023-02-17T02:20:04.735Z,15.40
2023-02-17T02:22:40.715Z,16.42
2023-02-17T02:25:29.833Z,16.67
2023-02-17T02:28:19.551Z,15.85
2023-02-17T02:31:02.774Z,15.90
2023-02-17T02:33:50.366Z,16.52
2023-02-17T02:36:44.608Z,16.25
2023-02-17T02:39:23.514Z,16.23
2023-02-17T02:42:01.678Z,16.42
2023-02-17T02:44:31.755Z,16.42
2023-02-17T02:47:05.370Z,16.35
2023-02-17T02:49:40.141Z,15.70
2023-02-17T02:52:18.538Z,16.73
2023-02-17T02:55:07.156Z,16.00
2023-02-17T02:58:01.715Z,16.05
2023-02-17T03:00:35.609Z,16.80
2023-02-17T03:03:13.207Z,15.95
2023-02-17T03:06:20.348Z,15.23
2023-02-17T03:08:58.052Z,15.75
2023-02-17T03:11:34.874Z,16.63
2023-02-17T03:14:19.674Z,15.73
2023-02-17T03:16:50.941Z,16.67
2023-02-17T03:19:24.457Z,16.45
2023-02-17T03:22:31.370Z,16.48
2023-02-17T03:25:03.367Z,16.63
2023-02-17T03:27:33.763Z,16.98
2023-02-17T03:30:03.939Z,15.90
2023-02-17T03:32:33.824Z,16.45
2023-02-17T13:53:00.745Z,28.13
2023-02-17T13:55:31.577Z,27.63
2023-02-17T13:58:02.767Z,31.77
2023-02-17T14:00:34.577Z,108.15
2023-02-17T14:05:50.351Z,29.05
2023-02-17T14:08:22.986Z,27.60
2023-02-17T14:10:53.560Z,28.48
2023-02-17T14:13:25.936Z,28.33
2023-02-17T14:16:01.782Z,29.48
2023-02-17T14:18:37.214Z,28.00
2023-02-17T14:21:11.189Z,28.60
2023-02-17T14:24:00.864Z,28.98
2023-02-17T14:26:50.512Z,28.00
2023-02-17T14:29:20.966Z,29.58
2023-02-17T14:31:54.737Z,29.50
2023-02-17T14:34:33.286Z,27.35
2023-02-17T14:37:27.098Z,29.40
2023-02-17T14:39:57.287Z,28.65
2023-02-17T14:42:27.256Z,28.20
2023-02-17T14:44:57.259Z,29.13
2023-02-17T14:47:27.227Z,27.92
2023-02-17T14:49:57.289Z,29.77
2023-02-17T14:52:27.624Z,28.85
2023-02-17T14:54:57.820Z,27.92
2023-02-17T14:57:30.569Z,27.58
2023-02-17T15:00:00.824Z,27.42
2023-02-17T15:02:32.569Z,27.90
2023-02-17T15:05:02.814Z,28.70
2023-02-17T15:07:32.978Z,30.83
2023-02-17T15:10:03.207Z,27.38
2023-02-17T15:12:33.545Z,27.95
2023-02-17T15:15:04.834Z,28.98
2023-02-17T15:17:37.711Z,28.45
2023-02-17T15:20:08.379Z,28.27
2023-02-17T15:22:43.817Z,26.63
2023-02-17T15:25:24.529Z,39.25
2023-02-17T15:27:54.821Z,27.87
2023-02-17T15:30:26.884Z,26.90
2023-02-17T15:32:59.510Z,27.13
2023-02-17T15:35:30.895Z,29.02
2023-02-17T15:40:32.422Z,28.35
2023-02-17T15:43:04.291Z,27.40
2023-02-17T15:45:36.726Z,27.17
2023-02-17T15:48:29.417Z,28.90
2023-02-17T15:50:59.624Z,27.75
2023-02-17T15:53:34.729Z,28.02
2023-02-17T15:56:07.876Z,29.13
2023-02-17T15:58:38.828Z,28.02
2023-02-17T16:01:09.181Z,28.55
2023-02-17T16:03:40.483Z,28.15
2023-02-17T16:08:42.324Z,27.83
2023-02-17T16:11:17.053Z,27.83
2023-02-17T16:13:48.893Z,28.42
2023-02-17T16:16:22.907Z,29.30
2023-02-17T16:18:54.484Z,29.38
2023-02-17T16:21:27.430Z,29.77
2023-02-17T16:24:01.968Z,29.77
2023-02-17T16:26:36.158Z,29.60
2023-02-17T16:29:17.664Z,29.17
2023-02-17T16:34:26.911Z,30.17
2023-02-17T16:37:01.792Z,30.40
2023-02-17T16:39:32.765Z,29.20
2023-02-17T16:42:05.021Z,29.98
2023-02-17T16:44:35.314Z,30.33
2023-02-17T16:47:05.681Z,29.88
2023-02-17T16:49:41.530Z,30.40
2023-02-17T16:52:27.384Z,30.30
2023-02-17T16:54:57.981Z,30.10
2023-02-17T16:57:28.752Z,29.87
2023-02-17T16:59:59.184Z,30.02
2023-02-17T17:02:33.349Z,31.48
2023-02-17T17:05:03.440Z,29.77
2023-02-17T17:07:34.764Z,31.23
2023-02-17T17:10:16.296Z,31.23
2023-02-17T17:12:48.506Z,30.88
2023-02-17T17:15:19.763Z,32.00
2023-02-17T17:18:09.775Z,31.98
2023-02-17T17:20:42.145Z,31.83
2023-02-17T17:23:16.898Z,31.55
2023-02-17T17:25:48.973Z,30.02
2023-02-17T17:28:21.046Z,30.02
2023-02-17T17:30:53.557Z,30.95
2023-02-17T17:33:23.717Z,30.95
2023-02-17T17:35:56.020Z,32.42
2023-02-17T17:38:26.142Z,33.25
2023-02-17T17:40:58.941Z,32.85
2023-02-17T17:43:29.443Z,32.28
2023-02-17T17:46:02.459Z,32.95
2023-02-17T17:48:32.664Z,31.92
2023-02-17T17:51:04.366Z,33.15
2023-02-17T17:53:34.767Z,32.53
2023-02-17T17:56:05.213Z,32.08
2023-02-17T17:58:39.766Z,33.13
2023-02-17T18:01:10.002Z,32.33
2023-02-17T18:03:40.375Z,32.65
2023-02-17T18:06:17.870Z,31.77
2023-02-17T18:08:51.383Z,34.53
2023-02-17T18:11:23.788Z,33.85
2023-02-17T18:13:57.524Z,33.65
2023-02-17T18:16:29.603Z,31.67
2023-02-17T18:19:02.249Z,32.58
2023-02-17T18:21:32.705Z,33.10
2023-02-17T18:24:02.761Z,34.28
2023-02-17T18:26:33.453Z,32.95
2023-02-17T18:29:03.992Z,31.63
2023-02-17T18:31:34.240Z,32.93
2023-02-17T18:34:04.616Z,33.53
2023-02-17T18:36:37.523Z,34.10
2023-02-17T18:39:08.187Z,33.88
2023-02-17T18:41:38.590Z,33.17
2023-02-17T18:44:08.816Z,32.85
2023-02-17T18:46:40.109Z,32.10
2023-02-17T18:49:11.611Z,33.05
2023-02-17T18:51:41.970Z,32.60
2023-02-17T18:54:13.302Z,33.80
2023-02-17T18:56:46.136Z,32.03
2023-02-17T18:59:16.244Z,32.47
2023-02-17T19:01:46.436Z,33.15
2023-02-17T19:04:17.699Z,32.97
2023-02-17T19:06:47.814Z,33.22
2023-02-17T19:09:18.264Z,33.28
2023-02-17T19:11:49.067Z,33.10
2023-02-17T19:14:19.260Z,32.63
2023-02-17T19:19:38.399Z,34.47
2023-02-17T19:22:10.858Z,32.72
2023-02-17T19:24:42.561Z,34.50
2023-02-17T19:27:14.222Z,35.58
2023-02-17T19:29:44.305Z,34.55
2023-02-17T19:32:14.494Z,34.30
2023-02-17T19:34:44.526Z,34.42
2023-02-17T19:37:14.635Z,35.15
2023-02-17T19:39:44.590Z,35.28
2023-02-17T19:42:14.560Z,33.42
2023-02-17T19:44:44.801Z,34.72
2023-02-17T19:47:17.808Z,36.10
2023-02-17T19:52:40.433Z,35.45
2023-02-17T19:57:44.124Z,35.72
2023-02-17T20:00:14.613Z,34.08
2023-02-17T20:02:44.648Z,34.15
2023-02-17T20:05:14.754Z,35.38
2023-02-17T20:07:46.302Z,34.10
2023-02-17T20:10:16.814Z,33.70
2023-02-17T20:12:47.142Z,34.22
2023-02-17T20:15:18.320Z,34.03
2023-02-17T20:17:48.468Z,35.05
2023-02-17T20:20:18.807Z,33.45
2023-02-17T20:22:48.833Z,34.30
2023-02-17T20:25:21.007Z,34.92
2023-02-17T20:27:51.086Z,35.03
2023-02-17T20:30:21.178Z,33.38
2023-02-17T20:32:52.766Z,33.20
2023-02-17T20:35:23.173Z,34.72
2023-02-17T20:37:52.988Z,35.15
2023-02-17T20:40:23.994Z,34.53
2023-02-17T20:42:54.008Z,33.22
2023-02-17T20:45:23.890Z,34.63
2023-02-17T20:47:54.112Z,34.33
2023-02-17T20:50:24.728Z,34.28
2023-02-17T20:52:54.733Z,33.00
2023-02-17T20:55:26.958Z,34.15
2023-02-17T20:57:58.024Z,33.88
2023-02-17T21:00:29.162Z,35.00
2023-02-17T21:03:00.021Z,33.60
2023-02-17T21:05:30.093Z,35.17
2023-02-17T21:08:00.770Z,35.20
2023-02-17T21:10:33.092Z,34.50
2023-02-17T21:13:03.825Z,34.33
2023-02-17T21:15:34.493Z,35.25
2023-02-17T21:18:04.551Z,34.30
2023-02-17T21:20:34.464Z,34.72
2023-02-17T21:23:04.301Z,33.65
2023-02-17T21:25:34.160Z,35.63
2023-02-17T21:28:03.968Z,33.28
2023-02-17T21:30:33.878Z,35.55
2023-02-17T21:33:03.803Z,33.88
2023-02-17T21:35:34.839Z,33.47
2023-02-17T21:38:04.876Z,33.38
2023-02-17T21:40:34.712Z,36.00
2023-02-17T21:43:22.990Z,35.00
2023-02-17T21:45:53.155Z,37.38
2023-02-17T21:48:24.507Z,34.28
2023-02-17T21:50:54.574Z,35.63
2023-02-17T21:53:24.409Z,35.38
2023-02-17T21:55:54.304Z,35.55
2023-02-17T21:58:24.625Z,33.58
2023-02-17T22:00:54.723Z,35.15
2023-02-17T22:03:25.014Z,33.67
2023-02-17T22:05:55.330Z,36.38
2023-02-17T22:08:26.565Z,33.53
2023-02-17T22:11:01.986Z,34.33
2023-02-17T22:14:05.264Z,34.60
2023-02-17T22:16:25.777Z,34.30
2023-02-17T22:19:02.961Z,33.92
2023-02-17T22:21:33.207Z,32.55
2023-02-17T22:24:04.154Z,34.38
2023-02-17T22:26:37.566Z,35.58
2023-02-17T22:29:08.092Z,34.92
2023-02-17T22:31:40.346Z,35.22
2023-02-17T22:34:12.555Z,34.00
2023-02-17T22:39:25.872Z,34.90
2023-02-17T22:41:56.467Z,35.58
2023-02-17T22:44:26.549Z,36.13
2023-02-17T22:47:01.122Z,34.65
2023-02-17T22:49:31.246Z,36.50
2023-02-17T22:52:01.145Z,34.03
2023-02-17T22:54:33.468Z,35.25
2023-02-17T22:57:03.704Z,37.25
2023-02-17T22:59:33.771Z,38.17
2023-02-17T23:02:03.636Z,40.30
2023-02-17T23:04:33.735Z,36.17
2023-02-17T23:07:03.685Z,37.95
2023-02-17T23:09:33.689Z,35.40
2023-02-17T23:12:03.722Z,36.05
2023-02-17T23:14:39.403Z,35.22
2023-02-17T23:17:12.840Z,35.20
2023-02-17T23:19:44.816Z,35.80
2023-02-17T23:22:18.930Z,37.08
2023-02-17T23:24:49.952Z,34.47
2023-02-17T23:27:20.104Z,36.55
2023-02-17T23:29:50.497Z,36.30
2023-02-17T23:32:20.937Z,36.50
2023-02-17T23:34:51.052Z,34.87
2023-02-17T23:37:21.666Z,36.22
2023-02-17T23:39:51.665Z,39.30
2023-02-17T23:42:22.457Z,36.50
2023-02-17T23:44:52.525Z,36.90
2023-02-17T23:47:22.422Z,37.05
2023-02-17T23:49:52.380Z,38.63
2023-02-17T23:52:22.301Z,38.13
2023-02-17T23:54:52.909Z,38.33
2023-02-17T23:57:24.134Z,36.75
2023-02-17T23:59:54.527Z,38.30
